sensor_id;sensor_type;location;lat;lon;timestamp;P1;durP1;ratioP1;P2;durP2;ratioP2
76210;SDS011;65003;49.518;11.280;2023-07-28T00:01:07;4.73;;;4.20;;
76210;SDS011;65003;49.518;11.280;2023-07-28T00:03:33;5.73;;;4.63;;
76210;SDS011;65003;49.518;11.280;2023-07-28T00:06:00;8.03;;;5.43;;
76210;SDS011;65003;49.518;11.280;2023-07-28T00:08:26;5.40;;;4.53;;
76210;SDS011;65003;49.518;11.280;2023-07-28T00:10:53;8.97;;;5.20;;
76210;SDS011;65003;49.518;11.280;2023-07-28T00:13:20;5.27;;;4.27;;
76210;SDS011;65003;49.518;11.280;2023-07-28T00:15:46;6.43;;;4.93;;
76210;SDS011;65003;49.518;11.280;2023-07-28T00:18:13;8.83;;;4.87;;
76210;SDS011;65003;49.518;11.280;2023-07-28T00:20:40;5.73;;;4.67;;
76210;SDS011;65003;49.518;11.280;2023-07-28T00:23:06;5.13;;;4.43;;
76210;SDS011;65003;49.518;11.280;2023-07-28T00:25:33;5.57;;;4.83;;
76210;SDS011;65003;49.518;11.280;2023-07-28T00:27:59;6.80;;;4.50;;
76210;SDS011;65003;49.518;11.280;2023-07-28T00:30:26;6.93;;;4.50;;
76210;SDS011;65003;49.518;11.280;2023-07-28T00:32:52;6.20;;;4.60;;
76210;SDS011;65003;49.518;11.280;2023-07-28T00:35:19;5.70;;;4.27;;
76210;SDS011;65003;49.518;11.280;2023-07-28T00:37:46;5.20;;;4.30;;
76210;SDS011;65003;49.518;11.280;2023-07-28T00:40:12;5.57;;;4.40;;
76210;SDS011;65003;49.518;11.280;2023-07-28T00:42:39;6.20;;;4.07;;
76210;SDS011;65003;49.518;11.280;2023-07-28T00:45:06;6.03;;;4.53;;
76210;SDS011;65003;49.518;11.280;2023-07-28T00:47:33;4.90;;;4.40;;
76210;SDS011;65003;49.518;11.280;2023-07-28T00:49:59;6.60;;;4.10;;
76210;SDS011;65003;49.518;11.280;2023-07-28T00:52:26;6.47;;;4.43;;
76210;SDS011;65003;49.518;11.280;2023-07-28T00:54:52;4.67;;;4.10;;
76210;SDS011;65003;49.518;11.280;2023-07-28T00:57:19;5.47;;;4.50;;
76210;SDS011;65003;49.518;11.280;2023-07-28T00:59:46;5.80;;;4.40;;
76210;SDS011;65003;49.518;11.280;2023-07-28T01:02:12;6.57;;;4.83;;
76210;SDS011;65003;49.518;11.280;2023-07-28T01:04:39;4.67;;;4.20;;
76210;SDS011;65003;49.518;11.280;2023-07-28T01:07:10;6.07;;;4.17;;
76210;SDS011;65003;49.518;11.280;2023-07-28T01:09:43;6.13;;;4.40;;
76210;SDS011;65003;49.518;11.280;2023-07-28T01:12:09;9.43;;;5.10;;
76210;SDS011;65003;49.518;11.280;2023-07-28T01:14:35;8.77;;;5.13;;
76210;SDS011;65003;49.518;11.280;2023-07-28T01:17:02;5.40;;;4.20;;
76210;SDS011;65003;49.518;11.280;2023-07-28T01:19:29;4.77;;;4.07;;
76210;SDS011;65003;49.518;11.280;2023-07-28T01:25:03;5.30;;;3.90;;
76210;SDS011;65003;49.518;11.280;2023-07-28T01:27:27;4.37;;;3.97;;
76210;SDS011;65003;49.518;11.280;2023-07-28T01:29:54;5.00;;;4.30;;
76210;SDS011;65003;49.518;11.280;2023-07-28T01:32:20;5.07;;;4.30;;
76210;SDS011;65003;49.518;11.280;2023-07-28T01:34:47;5.47;;;4.17;;
76210;SDS011;65003;49.518;11.280;2023-07-28T01:37:13;7.47;;;4.57;;
76210;SDS011;65003;49.518;11.280;2023-07-28T01:39:40;6.03;;;4.80;;
76210;SDS011;65003;49.518;11.280;2023-07-28T01:42:06;5.53;;;4.17;;
76210;SDS011;65003;49.518;11.280;2023-07-28T01:44:33;6.00;;;4.30;;
76210;SDS011;65003;49.518;11.280;2023-07-28T01:47:00;4.40;;;4.00;;
76210;SDS011;65003;49.518;11.280;2023-07-28T01:49:26;7.83;;;4.37;;
76210;SDS011;65003;49.518;11.280;2023-07-28T01:51:53;5.87;;;4.50;;
76210;SDS011;65003;49.518;11.280;2023-07-28T01:54:20;4.60;;;4.10;;
76210;SDS011;65003;49.518;11.280;2023-07-28T01:56:46;6.20;;;4.40;;
76210;SDS011;65003;49.518;11.280;2023-07-28T01:59:13;7.53;;;4.40;;
76210;SDS011;65003;49.518;11.280;2023-07-28T02:01:39;5.33;;;4.40;;
76210;SDS011;65003;49.518;11.280;2023-07-28T02:04:06;6.00;;;4.43;;
76210;SDS011;65003;49.518;11.280;2023-07-28T02:06:33;5.30;;;4.50;;
76210;SDS011;65003;49.518;11.280;2023-07-28T02:08:59;6.53;;;4.90;;
76210;SDS011;65003;49.518;11.280;2023-07-28T02:11:26;5.77;;;5.27;;
76210;SDS011;65003;49.518;11.280;2023-07-28T02:13:52;7.00;;;5.55;;
76210;SDS011;65003;49.518;11.280;2023-07-28T02:16:19;4.97;;;4.47;;
76210;SDS011;65003;49.518;11.280;2023-07-28T02:18:46;5.87;;;4.43;;
76210;SDS011;65003;49.518;11.280;2023-07-28T02:21:12;5.40;;;4.37;;
76210;SDS011;65003;49.518;11.280;2023-07-28T02:23:39;5.83;;;4.20;;
76210;SDS011;65003;49.518;11.280;2023-07-28T02:26:06;7.23;;;5.23;;
76210;SDS011;65003;49.518;11.280;2023-07-28T02:28:32;6.43;;;4.80;;
76210;SDS011;65003;49.518;11.280;2023-07-28T02:30:59;4.50;;;3.97;;
76210;SDS011;65003;49.518;11.280;2023-07-28T02:33:26;8.07;;;5.37;;
76210;SDS011;65003;49.518;11.280;2023-07-28T02:35:52;6.67;;;4.33;;
76210;SDS011;65003;49.518;11.280;2023-07-28T02:38:18;5.60;;;4.70;;
76210;SDS011;65003;49.518;11.280;2023-07-28T02:40:45;7.57;;;4.70;;
76210;SDS011;65003;49.518;11.280;2023-07-28T02:43:12;6.50;;;5.30;;
76210;SDS011;65003;49.518;11.280;2023-07-28T02:45:38;6.00;;;4.87;;
76210;SDS011;65003;49.518;11.280;2023-07-28T02:48:05;5.03;;;4.53;;
76210;SDS011;65003;49.518;11.280;2023-07-28T02:50:31;5.60;;;4.50;;
76210;SDS011;65003;49.518;11.280;2023-07-28T02:52:58;4.77;;;4.30;;
76210;SDS011;65003;49.518;11.280;2023-07-28T02:55:25;6.03;;;5.03;;
76210;SDS011;65003;49.518;11.280;2023-07-28T02:57:51;5.67;;;3.93;;
76210;SDS011;65003;49.518;11.280;2023-07-28T03:00:18;4.50;;;3.70;;
76210;SDS011;65003;49.518;11.280;2023-07-28T03:02:44;6.03;;;4.37;;
76210;SDS011;65003;49.518;11.280;2023-07-28T03:05:11;4.67;;;4.17;;
76210;SDS011;65003;49.518;11.280;2023-07-28T03:07:38;6.57;;;4.33;;
76210;SDS011;65003;49.518;11.280;2023-07-28T03:10:04;5.00;;;4.20;;
76210;SDS011;65003;49.518;11.280;2023-07-28T03:12:31;5.03;;;4.50;;
76210;SDS011;65003;49.518;11.280;2023-07-28T03:14:58;5.87;;;4.50;;
76210;SDS011;65003;49.518;11.280;2023-07-28T03:17:24;7.13;;;4.87;;
76210;SDS011;65003;49.518;11.280;2023-07-28T03:19:51;6.07;;;4.90;;
76210;SDS011;65003;49.518;11.280;2023-07-28T03:22:17;5.17;;;4.57;;
76210;SDS011;65003;49.518;11.280;2023-07-28T03:24:44;4.77;;;4.20;;
76210;SDS011;65003;49.518;11.280;2023-07-28T03:27:11;8.03;;;4.67;;
76210;SDS011;65003;49.518;11.280;2023-07-28T03:29:38;6.53;;;5.13;;
76210;SDS011;65003;49.518;11.280;2023-07-28T03:32:04;5.67;;;4.47;;
76210;SDS011;65003;49.518;11.280;2023-07-28T03:34:31;6.37;;;5.07;;
76210;SDS011;65003;49.518;11.280;2023-07-28T03:36:58;6.47;;;5.73;;
76210;SDS011;65003;49.518;11.280;2023-07-28T03:39:24;5.03;;;4.53;;
76210;SDS011;65003;49.518;11.280;2023-07-28T03:41:51;6.07;;;5.07;;
76210;SDS011;65003;49.518;11.280;2023-07-28T03:44:17;6.27;;;4.70;;
76210;SDS011;65003;49.518;11.280;2023-07-28T03:46:44;5.40;;;4.90;;
76210;SDS011;65003;49.518;11.280;2023-07-28T03:49:11;6.17;;;4.40;;
76210;SDS011;65003;49.518;11.280;2023-07-28T03:51:37;5.50;;;5.00;;
76210;SDS011;65003;49.518;11.280;2023-07-28T03:54:04;6.60;;;4.40;;
76210;SDS011;65003;49.518;11.280;2023-07-28T03:56:30;7.00;;;4.87;;
76210;SDS011;65003;49.518;11.280;2023-07-28T03:58:57;6.83;;;5.00;;
76210;SDS011;65003;49.518;11.280;2023-07-28T04:01:24;6.17;;;4.90;;
76210;SDS011;65003;49.518;11.280;2023-07-28T04:03:50;5.63;;;5.03;;
76210;SDS011;65003;49.518;11.280;2023-07-28T04:06:17;5.90;;;4.90;;
76210;SDS011;65003;49.518;11.280;2023-07-28T04:08:43;6.90;;;5.37;;
76210;SDS011;65003;49.518;11.280;2023-07-28T04:11:10;5.70;;;5.10;;
76210;SDS011;65003;49.518;11.280;2023-07-28T04:13:36;5.53;;;5.00;;
76210;SDS011;65003;49.518;11.280;2023-07-28T04:16:03;5.97;;;5.30;;
76210;SDS011;65003;49.518;11.280;2023-07-28T04:18:30;5.40;;;4.90;;
76210;SDS011;65003;49.518;11.280;2023-07-28T04:20:56;5.63;;;4.20;;
76210;SDS011;65003;49.518;11.280;2023-07-28T04:23:23;4.77;;;4.30;;
76210;SDS011;65003;49.518;11.280;2023-07-28T04:25:49;7.43;;;4.60;;
76210;SDS011;65003;49.518;11.280;2023-07-28T04:28:16;5.43;;;4.93;;
76210;SDS011;65003;49.518;11.280;2023-07-28T04:30:43;5.77;;;5.00;;
76210;SDS011;65003;49.518;11.280;2023-07-28T04:33:09;5.47;;;4.83;;
76210;SDS011;65003;49.518;11.280;2023-07-28T04:35:36;8.57;;;5.47;;
76210;SDS011;65003;49.518;11.280;2023-07-28T04:38:02;7.10;;;5.90;;
76210;SDS011;65003;49.518;11.280;2023-07-28T04:40:29;9.47;;;6.23;;
76210;SDS011;65003;49.518;11.280;2023-07-28T04:42:56;8.03;;;5.57;;
76210;SDS011;65003;49.518;11.280;2023-07-28T04:45:22;7.77;;;5.37;;
76210;SDS011;65003;49.518;11.280;2023-07-28T04:47:49;5.80;;;4.63;;
76210;SDS011;65003;49.518;11.280;2023-07-28T04:50:15;7.47;;;5.67;;
76210;SDS011;65003;49.518;11.280;2023-07-28T04:52:42;5.53;;;5.03;;
76210;SDS011;65003;49.518;11.280;2023-07-28T04:55:09;7.83;;;5.13;;
76210;SDS011;65003;49.518;11.280;2023-07-28T04:57:35;5.63;;;5.13;;
76210;SDS011;65003;49.518;11.280;2023-07-28T05:00:02;7.03;;;6.33;;
76210;SDS011;65003;49.518;11.280;2023-07-28T05:02:29;6.53;;;5.53;;
76210;SDS011;65003;49.518;11.280;2023-07-28T05:04:55;7.97;;;6.03;;
76210;SDS011;65003;49.518;11.280;2023-07-28T05:07:22;6.90;;;5.70;;
76210;SDS011;65003;49.518;11.280;2023-07-28T05:09:48;7.33;;;5.50;;
76210;SDS011;65003;49.518;11.280;2023-07-28T05:12:15;6.97;;;5.70;;
76210;SDS011;65003;49.518;11.280;2023-07-28T05:14:42;6.57;;;5.73;;
76210;SDS011;65003;49.518;11.280;2023-07-28T05:17:08;5.90;;;5.03;;
76210;SDS011;65003;49.518;11.280;2023-07-28T05:19:35;7.17;;;6.10;;
76210;SDS011;65003;49.518;11.280;2023-07-28T05:22:01;6.70;;;5.30;;
76210;SDS011;65003;49.518;11.280;2023-07-28T05:24:28;8.90;;;5.60;;
76210;SDS011;65003;49.518;11.280;2023-07-28T05:26:55;8.93;;;5.60;;
76210;SDS011;65003;49.518;11.280;2023-07-28T05:29:21;7.50;;;5.70;;
76210;SDS011;65003;49.518;11.280;2023-07-28T05:31:48;6.97;;;5.60;;
76210;SDS011;65003;49.518;11.280;2023-07-28T05:34:14;6.40;;;5.57;;
76210;SDS011;65003;49.518;11.280;2023-07-28T05:36:41;6.97;;;5.73;;
76210;SDS011;65003;49.518;11.280;2023-07-28T05:39:07;6.53;;;5.63;;
76210;SDS011;65003;49.518;11.280;2023-07-28T05:41:34;7.37;;;5.83;;
76210;SDS011;65003;49.518;11.280;2023-07-28T05:44:01;6.10;;;5.33;;
76210;SDS011;65003;49.518;11.280;2023-07-28T05:46:27;5.87;;;5.23;;
76210;SDS011;65003;49.518;11.280;2023-07-28T05:48:54;5.80;;;5.23;;
76210;SDS011;65003;49.518;11.280;2023-07-28T05:51:20;6.93;;;5.23;;
76210;SDS011;65003;49.518;11.280;2023-07-28T05:53:47;7.07;;;5.57;;
76210;SDS011;65003;49.518;11.280;2023-07-28T05:56:14;8.90;;;5.40;;
76210;SDS011;65003;49.518;11.280;2023-07-28T05:58:40;5.30;;;4.80;;
76210;SDS011;65003;49.518;11.280;2023-07-28T06:01:07;5.70;;;5.03;;
76210;SDS011;65003;49.518;11.280;2023-07-28T06:03:34;6.77;;;6.10;;
76210;SDS011;65003;49.518;11.280;2023-07-28T06:06:00;7.03;;;5.70;;
76210;SDS011;65003;49.518;11.280;2023-07-28T06:08:27;7.73;;;5.03;;
76210;SDS011;65003;49.518;11.280;2023-07-28T06:10:53;6.00;;;5.33;;
76210;SDS011;65003;49.518;11.280;2023-07-28T06:13:20;6.70;;;4.83;;
76210;SDS011;65003;49.518;11.280;2023-07-28T06:15:47;7.23;;;5.63;;
76210;SDS011;65003;49.518;11.280;2023-07-28T06:18:13;8.83;;;5.03;;
76210;SDS011;65003;49.518;11.280;2023-07-28T06:20:42;5.27;;;4.67;;
76210;SDS011;65003;49.518;11.280;2023-07-28T06:23:08;5.27;;;4.73;;
76210;SDS011;65003;49.518;11.280;2023-07-28T06:25:35;6.50;;;5.27;;
76210;SDS011;65003;49.518;11.280;2023-07-28T06:28:01;10.17;;;5.23;;
76210;SDS011;65003;49.518;11.280;2023-07-28T06:30:28;7.47;;;4.87;;
76210;SDS011;65003;49.518;11.280;2023-07-28T06:32:55;5.87;;;5.23;;
76210;SDS011;65003;49.518;11.280;2023-07-28T06:35:21;4.97;;;4.47;;
76210;SDS011;65003;49.518;11.280;2023-07-28T06:37:48;6.63;;;5.30;;
76210;SDS011;65003;49.518;11.280;2023-07-28T06:40:14;6.13;;;4.97;;
76210;SDS011;65003;49.518;11.280;2023-07-28T06:42:41;5.53;;;4.80;;
76210;SDS011;65003;49.518;11.280;2023-07-28T06:45:08;7.10;;;5.17;;
76210;SDS011;65003;49.518;11.280;2023-07-28T06:47:35;5.30;;;4.70;;
76210;SDS011;65003;49.518;11.280;2023-07-28T06:50:01;6.10;;;4.80;;
76210;SDS011;65003;49.518;11.280;2023-07-28T06:52:28;6.57;;;5.60;;
76210;SDS011;65003;49.518;11.280;2023-07-28T06:54:55;6.57;;;4.63;;
76210;SDS011;65003;49.518;11.280;2023-07-28T06:57:21;6.80;;;5.63;;
76210;SDS011;65003;49.518;11.280;2023-07-28T06:59:48;6.00;;;4.60;;
76210;SDS011;65003;49.518;11.280;2023-07-28T07:02:14;4.80;;;4.40;;
76210;SDS011;65003;49.518;11.280;2023-07-28T07:04:41;6.37;;;4.63;;
76210;SDS011;65003;49.518;11.280;2023-07-28T07:07:08;8.30;;;5.20;;
76210;SDS011;65003;49.518;11.280;2023-07-28T07:09:34;6.17;;;5.00;;
76210;SDS011;65003;49.518;11.280;2023-07-28T07:12:01;6.37;;;4.93;;
76210;SDS011;65003;49.518;11.280;2023-07-28T07:14:27;6.73;;;5.07;;
76210;SDS011;65003;49.518;11.280;2023-07-28T07:16:54;7.87;;;5.13;;
76210;SDS011;65003;49.518;11.280;2023-07-28T07:19:21;5.60;;;4.83;;
76210;SDS011;65003;49.518;11.280;2023-07-28T07:21:47;8.30;;;4.70;;
76210;SDS011;65003;49.518;11.280;2023-07-28T07:24:14;5.13;;;4.63;;
76210;SDS011;65003;49.518;11.280;2023-07-28T07:26:40;4.77;;;4.37;;
76210;SDS011;65003;49.518;11.280;2023-07-28T07:29:07;7.33;;;4.07;;
76210;SDS011;65003;49.518;11.280;2023-07-28T07:31:34;7.40;;;4.13;;
76210;SDS011;65003;49.518;11.280;2023-07-28T07:34:00;4.17;;;3.73;;
76210;SDS011;65003;49.518;11.280;2023-07-28T07:36:27;3.53;;;3.23;;
76210;SDS011;65003;49.518;11.280;2023-07-28T07:38:54;3.27;;;2.87;;
76210;SDS011;65003;49.518;11.280;2023-07-28T07:41:21;5.23;;;3.10;;
76210;SDS011;65003;49.518;11.280;2023-07-28T07:43:48;4.00;;;3.07;;
76210;SDS011;65003;49.518;11.280;2023-07-28T07:46:15;4.70;;;3.30;;
76210;SDS011;65003;49.518;11.280;2023-07-28T07:48:41;4.70;;;3.40;;
76210;SDS011;65003;49.518;11.280;2023-07-28T07:51:08;4.77;;;3.70;;
76210;SDS011;65003;49.518;11.280;2023-07-28T07:53:34;4.23;;;3.83;;
76210;SDS011;65003;49.518;11.280;2023-07-28T07:56:03;4.80;;;3.80;;
76210;SDS011;65003;49.518;11.280;2023-07-28T07:58:30;6.47;;;4.37;;
76210;SDS011;65003;49.518;11.280;2023-07-28T08:00:57;5.87;;;4.30;;
76210;SDS011;65003;49.518;11.280;2023-07-28T08:03:24;5.30;;;4.50;;
76210;SDS011;65003;49.518;11.280;2023-07-28T08:05:50;5.00;;;4.50;;
76210;SDS011;65003;49.518;11.280;2023-07-28T08:08:17;6.80;;;4.90;;
76210;SDS011;65003;49.518;11.280;2023-07-28T08:10:43;4.83;;;4.17;;
76210;SDS011;65003;49.518;11.280;2023-07-28T08:13:10;5.77;;;5.10;;
76210;SDS011;65003;49.518;11.280;2023-07-28T08:15:36;6.37;;;4.30;;
76210;SDS011;65003;49.518;11.280;2023-07-28T08:18:03;4.73;;;4.20;;
76210;SDS011;65003;49.518;11.280;2023-07-28T08:20:30;6.47;;;5.33;;
76210;SDS011;65003;49.518;11.280;2023-07-28T08:22:56;7.90;;;5.33;;
76210;SDS011;65003;49.518;11.280;2023-07-28T08:25:23;5.63;;;4.43;;
76210;SDS011;65003;49.518;11.280;2023-07-28T08:27:50;4.97;;;4.47;;
76210;SDS011;65003;49.518;11.280;2023-07-28T08:30:16;6.77;;;4.77;;
76210;SDS011;65003;49.518;11.280;2023-07-28T08:32:43;10.63;;;5.60;;
76210;SDS011;65003;49.518;11.280;2023-07-28T08:35:10;6.50;;;5.30;;
76210;SDS011;65003;49.518;11.280;2023-07-28T08:37:36;7.90;;;5.13;;
76210;SDS011;65003;49.518;11.280;2023-07-28T08:40:03;5.33;;;4.83;;
76210;SDS011;65003;49.518;11.280;2023-07-28T08:42:30;6.20;;;5.60;;
76210;SDS011;65003;49.518;11.280;2023-07-28T08:44:57;10.20;;;5.70;;
76210;SDS011;65003;49.518;11.280;2023-07-28T08:47:23;6.47;;;5.23;;
76210;SDS011;65003;49.518;11.280;2023-07-28T08:49:50;9.60;;;5.67;;
76210;SDS011;65003;49.518;11.280;2023-07-28T08:52:17;9.70;;;5.20;;
76210;SDS011;65003;49.518;11.280;2023-07-28T08:54:43;5.13;;;4.63;;
76210;SDS011;65003;49.518;11.280;2023-07-28T08:57:10;7.17;;;5.03;;
76210;SDS011;65003;49.518;11.280;2023-07-28T08:59:37;10.27;;;5.57;;
76210;SDS011;65003;49.518;11.280;2023-07-28T09:02:03;8.13;;;5.27;;
76210;SDS011;65003;49.518;11.280;2023-07-28T09:04:30;6.03;;;4.87;;
76210;SDS011;65003;49.518;11.280;2023-07-28T09:06:57;5.93;;;5.33;;
76210;SDS011;65003;49.518;11.280;2023-07-28T09:09:23;6.00;;;5.40;;
76210;SDS011;65003;49.518;11.280;2023-07-28T09:11:51;6.20;;;5.60;;
76210;SDS011;65003;49.518;11.280;2023-07-28T09:14:17;6.37;;;5.23;;
76210;SDS011;65003;49.518;11.280;2023-07-28T09:16:43;5.87;;;5.00;;
76210;SDS011;65003;49.518;11.280;2023-07-28T09:19:10;6.43;;;5.20;;
76210;SDS011;65003;49.518;11.280;2023-07-28T09:21:37;5.77;;;4.60;;
76210;SDS011;65003;49.518;11.280;2023-07-28T09:24:04;5.63;;;4.87;;
76210;SDS011;65003;49.518;11.280;2023-07-28T09:29:12;5.90;;;5.30;;
76210;SDS011;65003;49.518;11.280;2023-07-28T09:31:40;5.90;;;5.30;;
76210;SDS011;65003;49.518;11.280;2023-07-28T09:34:08;5.67;;;5.17;;
76210;SDS011;65003;49.518;11.280;2023-07-28T09:36:34;7.33;;;4.67;;
76210;SDS011;65003;49.518;11.280;2023-07-28T09:39:02;4.77;;;4.37;;
76210;SDS011;65003;49.518;11.280;2023-07-28T09:41:29;3.60;;;3.30;;
76210;SDS011;65003;49.518;11.280;2023-07-28T09:43:55;3.80;;;3.40;;
76210;SDS011;65003;49.518;11.280;2023-07-28T09:46:22;3.90;;;3.50;;
76210;SDS011;65003;49.518;11.280;2023-07-28T09:48:48;4.50;;;3.40;;
76210;SDS011;65003;49.518;11.280;2023-07-28T09:51:16;3.73;;;3.43;;
76210;SDS011;65003;49.518;11.280;2023-07-28T09:53:44;4.13;;;3.73;;
76210;SDS011;65003;49.518;11.280;2023-07-28T09:56:08;4.63;;;3.27;;
76210;SDS011;65003;49.518;11.280;2023-07-28T09:58:36;3.10;;;2.90;;
76210;SDS011;65003;49.518;11.280;2023-07-28T10:01:01;3.73;;;3.13;;
76210;SDS011;65003;49.518;11.280;2023-07-28T10:03:28;3.07;;;2.77;;
76210;SDS011;65003;49.518;11.280;2023-07-28T10:05:54;2.67;;;2.47;;
76210;SDS011;65003;49.518;11.280;2023-07-28T10:08:21;2.63;;;2.43;;
76210;SDS011;65003;49.518;11.280;2023-07-28T10:10:48;3.20;;;2.20;;
76210;SDS011;65003;49.518;11.280;2023-07-28T10:13:20;3.47;;;2.57;;
76210;SDS011;65003;49.518;11.280;2023-07-28T10:15:46;4.40;;;2.20;;
76210;SDS011;65003;49.518;11.280;2023-07-28T10:18:13;4.73;;;2.13;;
76210;SDS011;65003;49.518;11.280;2023-07-28T10:20:40;3.43;;;2.30;;
76210;SDS011;65003;49.518;11.280;2023-07-28T10:23:21;2.37;;;1.87;;
76210;SDS011;65003;49.518;11.280;2023-07-28T10:25:55;2.97;;;2.00;;
76210;SDS011;65003;49.518;11.280;2023-07-28T10:30:57;2.37;;;1.77;;
76210;SDS011;65003;49.518;11.280;2023-07-28T10:33:28;2.00;;;1.87;;
76210;SDS011;65003;49.518;11.280;2023-07-28T10:38:38;1.87;;;1.77;;
76210;SDS011;65003;49.518;11.280;2023-07-28T10:41:06;1.53;;;1.40;;
76210;SDS011;65003;49.518;11.280;2023-07-28T10:43:33;1.80;;;1.30;;
76210;SDS011;65003;49.518;11.280;2023-07-28T10:45:59;1.80;;;1.70;;
76210;SDS011;65003;49.518;11.280;2023-07-28T10:48:26;1.83;;;1.50;;
76210;SDS011;65003;49.518;11.280;2023-07-28T10:50:52;3.50;;;1.13;;
76210;SDS011;65003;49.518;11.280;2023-07-28T10:53:19;2.03;;;1.20;;
76210;SDS011;65003;49.518;11.280;2023-07-28T10:55:46;2.73;;;1.33;;
76210;SDS011;65003;49.518;11.280;2023-07-28T10:58:12;1.80;;;1.00;;
76210;SDS011;65003;49.518;11.280;2023-07-28T11:00:39;1.83;;;1.10;;
76210;SDS011;65003;49.518;11.280;2023-07-28T11:03:07;1.53;;;1.03;;
76210;SDS011;65003;49.518;11.280;2023-07-28T11:05:32;1.23;;;0.93;;
76210;SDS011;65003;49.518;11.280;2023-07-28T11:07:59;1.00;;;1.00;;
76210;SDS011;65003;49.518;11.280;2023-07-28T11:10:27;1.63;;;1.40;;
76210;SDS011;65003;49.518;11.280;2023-07-28T11:12:56;1.27;;;0.83;;
76210;SDS011;65003;49.518;11.280;2023-07-28T11:15:21;1.67;;;1.00;;
76210;SDS011;65003;49.518;11.280;2023-07-28T11:17:48;2.03;;;1.00;;
76210;SDS011;65003;49.518;11.280;2023-07-28T11:20:16;1.33;;;1.10;;
76210;SDS011;65003;49.518;11.280;2023-07-28T11:22:44;1.43;;;0.97;;
76210;SDS011;65003;49.518;11.280;2023-07-28T11:25:12;1.07;;;1.00;;
76210;SDS011;65003;49.518;11.280;2023-07-28T11:27:39;1.77;;;1.67;;
76210;SDS011;65003;49.518;11.280;2023-07-28T11:30:07;0.93;;;0.93;;
76210;SDS011;65003;49.518;11.280;2023-07-28T11:32:34;1.20;;;1.00;;
76210;SDS011;65003;49.518;11.280;2023-07-28T11:35:04;2.40;;;0.70;;
76210;SDS011;65003;49.518;11.280;2023-07-28T11:37:33;0.90;;;0.90;;
76210;SDS011;65003;49.518;11.280;2023-07-28T11:39:59;1.10;;;1.00;;
76210;SDS011;65003;49.518;11.280;2023-07-28T11:42:26;0.90;;;0.90;;
76210;SDS011;65003;49.518;11.280;2023-07-28T11:44:52;1.10;;;1.00;;
76210;SDS011;65003;49.518;11.280;2023-07-28T11:47:19;1.17;;;0.93;;
76210;SDS011;65003;49.518;11.280;2023-07-28T11:49:47;0.93;;;0.80;;
76210;SDS011;65003;49.518;11.280;2023-07-28T11:52:13;1.47;;;0.90;;
76210;SDS011;65003;49.518;11.280;2023-07-28T11:54:40;1.57;;;1.10;;
76210;SDS011;65003;49.518;11.280;2023-07-28T11:57:07;1.10;;;1.00;;
76210;SDS011;65003;49.518;11.280;2023-07-28T11:59:33;1.27;;;1.13;;
76210;SDS011;65003;49.518;11.280;2023-07-28T12:02:01;1.90;;;0.80;;
76210;SDS011;65003;49.518;11.280;2023-07-28T12:04:27;3.00;;;0.80;;
76210;SDS011;65003;49.518;11.280;2023-07-28T12:09:27;4.30;;;2.87;;
76210;SDS011;65003;49.518;11.280;2023-07-28T12:11:53;1.20;;;1.10;;
76210;SDS011;65003;49.518;11.280;2023-07-28T12:16:59;0.67;;;0.67;;
76210;SDS011;65003;49.518;11.280;2023-07-28T12:19:25;1.00;;;0.90;;
76210;SDS011;65003;49.518;11.280;2023-07-28T12:21:52;0.80;;;0.80;;
76210;SDS011;65003;49.518;11.280;2023-07-28T12:24:18;1.00;;;1.00;;
76210;SDS011;65003;49.518;11.280;2023-07-28T12:26:45;1.07;;;0.80;;
76210;SDS011;65003;49.518;11.280;2023-07-28T12:29:11;0.90;;;0.80;;
76210;SDS011;65003;49.518;11.280;2023-07-28T12:31:38;1.17;;;0.70;;
76210;SDS011;65003;49.518;11.280;2023-07-28T12:34:05;0.90;;;0.90;;
76210;SDS011;65003;49.518;11.280;2023-07-28T12:36:31;0.70;;;0.70;;
76210;SDS011;65003;49.518;11.280;2023-07-28T12:38:58;0.80;;;0.70;;
76210;SDS011;65003;49.518;11.280;2023-07-28T12:41:24;1.37;;;0.90;;
76210;SDS011;65003;49.518;11.280;2023-07-28T12:43:51;0.90;;;0.90;;
76210;SDS011;65003;49.518;11.280;2023-07-28T12:46:17;0.70;;;0.70;;
76210;SDS011;65003;49.518;11.280;2023-07-28T12:48:44;5.20;;;1.00;;
76210;SDS011;65003;49.518;11.280;2023-07-28T12:51:11;0.67;;;0.67;;
76210;SDS011;65003;49.518;11.280;2023-07-28T12:53:37;2.10;;;0.90;;
76210;SDS011;65003;49.518;11.280;2023-07-28T12:56:04;0.70;;;0.70;;
76210;SDS011;65003;49.518;11.280;2023-07-28T12:58:30;1.83;;;0.70;;
76210;SDS011;65003;49.518;11.280;2023-07-28T13:00:57;2.80;;;0.90;;
76210;SDS011;65003;49.518;11.280;2023-07-28T13:03:24;5.23;;;4.40;;
76210;SDS011;65003;49.518;11.280;2023-07-28T13:05:50;0.93;;;0.93;;
76210;SDS011;65003;49.518;11.280;2023-07-28T13:08:17;1.10;;;0.83;;
76210;SDS011;65003;49.518;11.280;2023-07-28T13:10:43;1.60;;;1.07;;
76210;SDS011;65003;49.518;11.280;2023-07-28T13:13:10;0.60;;;0.60;;
76210;SDS011;65003;49.518;11.280;2023-07-28T13:15:37;1.47;;;1.10;;
76210;SDS011;65003;49.518;11.280;2023-07-28T13:18:03;0.90;;;0.80;;
76210;SDS011;65003;49.518;11.280;2023-07-28T13:20:30;0.93;;;0.83;;
76210;SDS011;65003;49.518;11.280;2023-07-28T13:22:56;1.93;;;0.80;;
76210;SDS011;65003;49.518;11.280;2023-07-28T13:25:23;1.73;;;0.80;;
76210;SDS011;65003;49.518;11.280;2023-07-28T13:27:49;3.77;;;0.73;;
76210;SDS011;65003;49.518;11.280;2023-07-28T13:30:16;0.80;;;0.77;;
76210;SDS011;65003;49.518;11.280;2023-07-28T13:32:43;0.90;;;0.80;;
76210;SDS011;65003;49.518;11.280;2023-07-28T13:35:09;1.53;;;1.30;;
76210;SDS011;65003;49.518;11.280;2023-07-28T13:37:36;3.23;;;1.47;;
76210;SDS011;65003;49.518;11.280;2023-07-28T13:40:03;1.77;;;0.97;;
76210;SDS011;65003;49.518;11.280;2023-07-28T13:42:30;1.20;;;1.00;;
76210;SDS011;65003;49.518;11.280;2023-07-28T13:44:56;0.87;;;0.83;;
76210;SDS011;65003;49.518;11.280;2023-07-28T13:47:23;2.10;;;0.90;;
76210;SDS011;65003;49.518;11.280;2023-07-28T13:49:49;1.20;;;1.10;;
76210;SDS011;65003;49.518;11.280;2023-07-28T13:52:16;0.60;;;0.60;;
76210;SDS011;65003;49.518;11.280;2023-07-28T13:54:43;1.37;;;1.27;;
76210;SDS011;65003;49.518;11.280;2023-07-28T13:57:09;2.80;;;2.50;;
76210;SDS011;65003;49.518;11.280;2023-07-28T13:59:36;3.63;;;3.27;;
76210;SDS011;65003;49.518;11.280;2023-07-28T14:02:02;3.73;;;2.40;;
76210;SDS011;65003;49.518;11.280;2023-07-28T14:04:29;2.80;;;2.60;;
76210;SDS011;65003;49.518;11.280;2023-07-28T14:06:56;2.70;;;2.50;;
76210;SDS011;65003;49.518;11.280;2023-07-28T14:09:23;1.83;;;1.63;;
76210;SDS011;65003;49.518;11.280;2023-07-28T14:11:49;2.30;;;2.20;;
76210;SDS011;65003;49.518;11.280;2023-07-28T14:14:16;1.30;;;1.00;;
76210;SDS011;65003;49.518;11.280;2023-07-28T14:16:42;1.80;;;1.70;;
76210;SDS011;65003;49.518;11.280;2023-07-28T14:19:09;1.70;;;1.60;;
76210;SDS011;65003;49.518;11.280;2023-07-28T14:21:36;1.43;;;1.33;;
76210;SDS011;65003;49.518;11.280;2023-07-28T14:24:02;1.93;;;1.03;;
76210;SDS011;65003;49.518;11.280;2023-07-28T14:26:29;1.03;;;0.93;;
76210;SDS011;65003;49.518;11.280;2023-07-28T14:28:55;3.80;;;1.10;;
76210;SDS011;65003;49.518;11.280;2023-07-28T14:31:22;0.80;;;0.80;;
76210;SDS011;65003;49.518;11.280;2023-07-28T14:33:49;1.10;;;0.80;;
76210;SDS011;65003;49.518;11.280;2023-07-28T14:36:15;1.30;;;1.20;;
76210;SDS011;65003;49.518;11.280;2023-07-28T14:38:42;2.47;;;2.27;;
76210;SDS011;65003;49.518;11.280;2023-07-28T14:41:09;2.57;;;2.20;;
76210;SDS011;65003;49.518;11.280;2023-07-28T14:43:35;1.80;;;1.63;;
76210;SDS011;65003;49.518;11.280;2023-07-28T14:46:02;2.27;;;1.40;;